createdAt,value
2023-03-01T00:00:18.365Z,6.70
2023-03-01T00:01:18.292Z,7.70
2023-03-01T00:02:18.370Z,7.10
2023-03-01T00:03:18.303Z,7.80
2023-03-01T00:04:18.357Z,7.40
2023-03-01T00:05:18.259Z,7.70
2023-03-01T00:06:18.283Z,7.50
2023-03-01T00:07:18.293Z,7.30
2023-03-01T00:08:18.263Z,7.70
2023-03-01T00:09:18.222Z,7.20
2023-03-01T00:10:18.227Z,7.70
2023-03-01T00:11:18.280Z,7.50
2023-03-01T00:12:18.232Z,7.70
2023-03-01T00:13:18.204Z,8.10
2023-03-01T00:14:18.244Z,7.30
2023-03-01T00:15:18.161Z,7.70
2023-03-01T00:16:18.231Z,8.40
2023-03-01T00:17:18.179Z,7.20
2023-03-01T00:18:18.150Z,7.00
2023-03-01T00:19:18.139Z,7.60
2023-03-01T00:20:18.115Z,7.20
2023-03-01T00:21:18.132Z,7.80
2023-03-01T00:22:18.113Z,7.10
2023-03-01T00:23:18.117Z,7.70
2023-03-01T00:24:18.106Z,9.10
2023-03-01T00:25:18.065Z,7.70
2023-03-01T00:26:18.066Z,8.20
2023-03-01T00:27:18.089Z,8.30
2023-03-01T00:28:18.102Z,8.00
2023-03-01T00:29:18.042Z,8.20
2023-03-01T00:30:18.028Z,8.40
2023-03-01T00:31:18.013Z,7.80
2023-03-01T00:32:18.055Z,8.80
2023-03-01T00:33:18.004Z,9.40
2023-03-01T00:34:18.024Z,8.20
2023-03-01T00:35:18.005Z,7.30
2023-03-01T00:36:17.974Z,7.50
2023-03-01T00:37:17.957Z,7.20
2023-03-01T00:38:17.964Z,7.40
2023-03-01T00:39:17.933Z,8.40
2023-03-01T00:40:17.959Z,7.90
2023-03-01T00:41:17.931Z,7.40
2023-03-01T00:42:17.908Z,7.80
2023-03-01T00:43:17.880Z,7.50
2023-03-01T00:44:17.937Z,7.70
2023-03-01T00:45:17.875Z,7.20
2023-03-01T00:46:18.008Z,7.30
2023-03-01T00:47:17.877Z,7.90
2023-03-01T00:48:17.863Z,7.70
2023-03-01T00:49:17.858Z,7.30
2023-03-01T00:50:17.870Z,7.70
2023-03-01T00:51:17.843Z,8.20
2023-03-01T00:52:17.828Z,9.40
2023-03-01T00:53:17.796Z,7.80
2023-03-01T00:54:17.856Z,8.40
2023-03-01T00:55:17.796Z,8.00
2023-03-01T00:56:17.800Z,7.90
2023-03-01T00:57:17.762Z,7.90
2023-03-01T00:58:17.746Z,9.20
2023-03-01T00:59:17.753Z,9.00
2023-03-01T01:00:17.772Z,8.00
2023-03-01T01:01:17.786Z,8.80
2023-03-01T01:02:17.780Z,7.70
2023-03-01T01:03:17.697Z,9.40
2023-03-01T01:04:17.700Z,9.00
2023-03-01T01:05:17.699Z,9.50
2023-03-01T01:06:17.674Z,8.30
2023-03-01T01:07:17.697Z,7.70
2023-03-01T01:08:17.675Z,7.50
2023-03-01T01:09:17.650Z,8.30
2023-03-01T01:10:17.647Z,8.80
2023-03-01T01:11:17.635Z,8.70
2023-03-01T01:12:17.626Z,7.70
2023-03-01T01:13:17.662Z,7.80
2023-03-01T01:14:17.625Z,7.30
2023-03-01T01:15:17.612Z,8.60
2023-03-01T01:16:17.620Z,9.70
2023-03-01T01:17:17.595Z,9.30
2023-03-01T01:18:17.556Z,9.50
2023-03-01T01:19:17.530Z,9.80
2023-03-01T01:20:17.565Z,8.80
2023-03-01T01:21:17.591Z,8.50
2023-03-01T01:22:17.520Z,8.70
2023-03-01T01:23:17.490Z,8.60
2023-03-01T01:24:17.504Z,7.90
2023-03-01T01:25:17.481Z,8.30
2023-03-01T01:26:17.491Z,8.30
2023-03-01T01:27:17.465Z,8.00
2023-03-01T01:28:17.468Z,8.10
2023-03-01T01:29:17.439Z,8.60
2023-03-01T01:30:17.429Z,8.30
2023-03-01T01:31:17.482Z,8.20
2023-03-01T01:32:17.518Z,7.80
2023-03-01T01:33:17.414Z,8.20
2023-03-01T01:34:17.390Z,8.30
2023-03-01T01:35:17.383Z,8.20
2023-03-01T01:36:17.372Z,9.30
2023-03-01T01:37:17.347Z,9.50
2023-03-01T01:38:17.362Z,11.10
2023-03-01T01:39:17.391Z,9.80
2023-03-01T01:40:17.375Z,9.50
2023-03-01T01:41:17.358Z,9.20
2023-03-01T01:42:17.322Z,8.50
2023-03-01T01:43:17.344Z,8.40
2023-03-01T01:44:17.287Z,8.70
2023-03-01T01:45:17.281Z,8.70
2023-03-01T01:46:17.348Z,8.90
2023-03-01T01:47:17.262Z,8.30
2023-03-01T01:48:17.287Z,8.60
2023-03-01T01:49:17.304Z,8.60
2023-03-01T01:50:17.227Z,8.60
2023-03-01T01:51:17.221Z,8.40
2023-03-01T01:52:17.202Z,8.40
2023-03-01T01:53:17.226Z,8.50
2023-03-01T01:54:17.208Z,8.80
2023-03-01T01:55:17.205Z,8.10
2023-03-01T01:56:17.231Z,9.70
2023-03-01T01:57:17.222Z,9.50
2023-03-01T01:58:17.158Z,8.90
2023-03-01T01:59:17.145Z,9.40
2023-03-01T02:00:17.113Z,9.20
2023-03-01T02:01:17.120Z,9.40
2023-03-01T02:02:17.161Z,9.70
2023-03-01T02:03:17.188Z,9.90
2023-03-01T02:04:17.077Z,8.90
2023-03-01T02:05:17.099Z,8.40
2023-03-01T02:06:17.061Z,8.90
2023-03-01T02:07:17.071Z,8.50
2023-03-01T02:08:17.046Z,8.30
2023-03-01T02:09:17.039Z,8.90
2023-03-01T02:10:17.030Z,8.30
2023-03-01T02:11:17.058Z,8.40
2023-03-01T02:12:17.052Z,8.40
2023-03-01T02:13:17.022Z,8.60
2023-03-01T02:14:16.982Z,8.80
2023-03-01T02:15:16.987Z,8.50
2023-03-01T02:16:16.986Z,8.50
2023-03-01T02:17:17.011Z,9.50
2023-03-01T02:18:16.972Z,9.80
2023-03-01T02:19:16.952Z,8.90
2023-03-01T02:20:16.933Z,10.50
2023-03-01T02:21:16.979Z,9.00
2023-03-01T02:22:16.973Z,8.40
2023-03-01T02:23:16.904Z,8.40
2023-03-01T02:24:18.692Z,7.70
2023-03-01T02:25:16.900Z,8.70
2023-03-01T02:26:16.895Z,8.50
2023-03-01T02:27:16.870Z,7.70
2023-03-01T02:28:16.870Z,7.80
2023-03-01T02:29:16.849Z,7.80
2023-03-01T02:30:16.820Z,9.20
2023-03-01T02:31:16.892Z,7.90
2023-03-01T02:32:16.921Z,8.40
2023-03-01T02:33:16.796Z,9.70
2023-03-01T02:34:16.781Z,7.90
2023-03-01T02:35:16.824Z,8.50
2023-03-01T02:36:16.793Z,7.80
2023-03-01T02:37:16.744Z,8.30
2023-03-01T02:38:16.753Z,8.20
2023-03-01T02:39:16.765Z,8.00
2023-03-01T02:40:16.752Z,8.50
2023-03-01T02:41:16.724Z,9.50
2023-03-01T02:42:16.710Z,8.80
2023-03-01T02:43:16.721Z,8.50
2023-03-01T02:44:16.755Z,8.10
2023-03-01T02:45:16.692Z,10.10
2023-03-01T02:46:16.694Z,9.30
2023-03-01T02:47:16.675Z,10.30
2023-03-01T02:48:16.660Z,10.60
2023-03-01T02:49:16.661Z,11.30
2023-03-01T02:50:16.627Z,9.40
2023-03-01T02:51:16.622Z,8.40
2023-03-01T02:52:16.688Z,9.10
2023-03-01T02:53:16.636Z,8.70
2023-03-01T02:54:16.592Z,8.00
2023-03-01T02:55:16.635Z,8.40
2023-03-01T02:56:16.562Z,8.80
2023-03-01T02:57:16.593Z,8.10
2023-03-01T02:58:16.551Z,8.30
2023-03-01T02:59:16.571Z,8.70
2023-03-01T03:00:16.524Z,8.30
2023-03-01T03:01:16.574Z,8.70
2023-03-01T03:02:16.543Z,9.70
2023-03-01T03:03:16.519Z,8.80
2023-03-01T03:04:16.526Z,10.40
2023-03-01T03:05:16.496Z,8.30
2023-03-01T03:06:16.456Z,11.10
2023-03-01T03:07:16.470Z,9.10
2023-03-01T03:08:16.521Z,9.90
2023-03-01T03:09:16.879Z,8.70
2023-03-01T03:10:16.430Z,9.50
2023-03-01T03:11:16.476Z,9.20
2023-03-01T03:12:16.407Z,10.10
2023-03-01T03:13:16.449Z,11.10
2023-03-01T03:14:16.391Z,8.70
2023-03-01T03:15:16.379Z,9.50
2023-03-01T03:16:16.404Z,8.70
2023-03-01T03:17:16.377Z,8.70
2023-03-01T03:18:16.417Z,10.10
2023-03-01T03:19:16.371Z,8.60
2023-03-01T03:20:16.343Z,8.90
2023-03-01T03:21:16.369Z,10.20
2023-03-01T03:22:16.303Z,8.10
2023-03-01T03:23:16.324Z,9.20
2023-03-01T03:24:16.300Z,9.90
2023-03-01T03:25:16.294Z,9.30
2023-03-01T03:26:16.358Z,8.00
2023-03-01T03:27:16.276Z,8.70
2023-03-01T03:28:16.280Z,10.60
2023-03-01T03:29:16.245Z,9.00
2023-03-01T03:30:16.245Z,10.30
2023-03-01T03:31:16.302Z,9.70
2023-03-01T03:32:16.227Z,9.30
2023-03-01T03:33:16.220Z,10.90
2023-03-01T03:34:16.189Z,9.80
2023-03-01T03:35:16.200Z,8.50
2023-03-01T03:36:16.164Z,8.70
2023-03-01T03:37:16.152Z,9.00
2023-03-01T03:38:16.135Z,9.50
2023-03-01T03:39:16.160Z,8.70
2023-03-01T03:40:16.180Z,8.60
2023-03-01T03:41:16.138Z,11.30
2023-03-01T03:42:16.122Z,9.70
2023-03-01T03:43:16.138Z,11.30
2023-03-01T03:44:16.105Z,9.50
2023-03-01T03:45:16.078Z,10.90
2023-03-01T03:46:16.077Z,10.10
2023-03-01T03:47:16.076Z,9.90
2023-03-01T03:48:16.103Z,9.00
2023-03-01T03:49:16.045Z,9.10
2023-03-01T03:50:16.041Z,9.80
2023-03-01T03:51:16.073Z,8.60
2023-03-01T03:52:16.000Z,8.50
2023-03-01T03:53:15.999Z,8.60
2023-03-01T03:54:16.023Z,9.30
2023-03-01T03:55:15.991Z,8.60
2023-03-01T03:56:15.960Z,8.50
2023-03-01T03:57:15.995Z,9.00
2023-03-01T03:58:15.962Z,8.70
2023-03-01T03:59:15.981Z,10.80
2023-03-01T04:00:15.914Z,11.00
2023-03-01T04:01:15.998Z,8.90
2023-03-01T04:02:15.978Z,9.10
2023-03-01T04:03:15.903Z,9.00
2023-03-01T04:04:15.914Z,9.90
2023-03-01T04:05:15.890Z,10.60
2023-03-01T04:06:15.897Z,9.20
2023-03-01T04:07:15.886Z,9.50
2023-03-01T04:08:15.850Z,11.20
2023-03-01T04:09:15.841Z,10.70
2023-03-01T04:10:15.852Z,9.80
2023-03-01T04:11:15.843Z,9.50
2023-03-01T04:12:15.819Z,10.30
2023-03-01T04:13:15.804Z,10.30
2023-03-01T04:14:15.813Z,9.00
2023-03-01T04:15:15.804Z,9.60
2023-03-01T04:16:15.836Z,9.30
2023-03-01T04:17:15.765Z,9.00
2023-03-01T04:18:15.780Z,9.60
2023-03-01T04:19:15.755Z,10.50
2023-03-01T04:20:15.755Z,10.10
2023-03-01T04:21:15.762Z,11.30
2023-03-01T04:22:15.710Z,11.40
2023-03-01T04:23:15.747Z,11.00
2023-03-01T04:24:15.736Z,10.30
2023-03-01T04:25:15.705Z,11.10
2023-03-01T04:26:15.658Z,11.00
2023-03-01T04:27:15.734Z,11.50
2023-03-01T04:28:15.669Z,12.70
2023-03-01T04:29:15.662Z,11.60
2023-03-01T04:30:15.660Z,11.80
2023-03-01T04:31:15.689Z,11.40
2023-03-01T04:32:15.747Z,12.20
2023-03-01T04:33:15.684Z,12.20
2023-03-01T04:34:15.637Z,12.90
2023-03-01T04:35:15.587Z,11.10
2023-03-01T04:36:15.629Z,12.40
2023-03-01T04:37:15.605Z,12.20
2023-03-01T04:38:15.587Z,11.60
2023-03-01T04:39:15.545Z,10.60
2023-03-01T04:40:15.524Z,11.10
2023-03-01T04:41:15.537Z,10.60
2023-03-01T04:42:15.523Z,10.20
2023-03-01T04:43:15.682Z,10.00
2023-03-01T04:44:15.500Z,10.00
2023-03-01T04:45:15.509Z,10.30
2023-03-01T04:46:15.835Z,9.50
2023-03-01T04:47:15.479Z,9.70
2023-03-01T04:48:15.464Z,9.70
2023-03-01T04:49:15.462Z,9.40
2023-03-01T04:50:15.454Z,9.80
2023-03-01T04:51:15.464Z,10.00
2023-03-01T04:52:15.416Z,9.80
2023-03-01T04:53:15.414Z,9.90
2023-03-01T04:54:15.441Z,10.50
2023-03-01T04:55:15.408Z,10.10
2023-03-01T04:56:15.395Z,10.20
2023-03-01T04:57:15.412Z,10.40
2023-03-01T04:58:15.390Z,10.90
2023-03-01T04:59:15.409Z,10.50
2023-03-01T05:00:15.334Z,10.70
2023-03-01T05:01:15.365Z,10.50
2023-03-01T05:02:15.304Z,10.00
2023-03-01T05:03:15.390Z,11.70
2023-03-01T05:04:15.377Z,12.60
2023-03-01T05:05:15.305Z,10.30
2023-03-01T05:06:15.287Z,10.40
2023-03-01T05:07:15.287Z,10.00
2023-03-01T05:08:15.271Z,9.70
2023-03-01T05:09:15.277Z,12.00
2023-03-01T05:10:15.254Z,11.40
2023-03-01T05:11:15.240Z,11.10
2023-03-01T05:12:15.219Z,10.80
2023-03-01T05:13:15.295Z,11.10
2023-03-01T05:14:15.197Z,11.00
2023-03-01T05:15:15.245Z,11.40
2023-03-01T05:16:15.293Z,12.10
2023-03-01T05:17:15.174Z,10.10
2023-03-01T05:18:15.170Z,10.90
2023-03-01T05:19:15.209Z,10.60
2023-03-01T05:20:15.165Z,10.20
2023-03-01T05:21:15.146Z,10.40
2023-03-01T05:22:15.762Z,10.20
2023-03-01T05:23:15.120Z,11.00
2023-03-01T05:24:15.099Z,10.60
2023-03-01T05:25:15.109Z,11.20
2023-03-01T05:26:30.505Z,11.00
2023-03-01T05:27:15.877Z,11.30
2023-03-01T05:28:15.057Z,10.70
2023-03-01T05:29:15.087Z,10.90
2023-03-01T05:30:15.108Z,10.90
2023-03-01T05:31:15.064Z,11.00
2023-03-01T05:32:15.074Z,10.50
2023-03-01T05:33:15.031Z,11.30
2023-03-01T05:34:14.986Z,10.80
2023-03-01T05:35:15.011Z,10.70
2023-03-01T05:36:15.065Z,10.50
2023-03-01T05:37:15.018Z,10.60
2023-03-01T05:38:14.962Z,12.50
2023-03-01T05:39:14.961Z,11.90
2023-03-01T05:40:14.936Z,10.60
2023-03-01T05:41:14.928Z,10.90
2023-03-01T05:42:14.891Z,9.90
2023-03-01T05:43:14.908Z,10.00
2023-03-01T05:44:14.848Z,10.80
2023-03-01T05:45:14.875Z,10.00
2023-03-01T05:46:14.893Z,10.20
2023-03-01T05:47:14.850Z,10.40
2023-03-01T05:48:14.831Z,10.30
2023-03-01T05:49:14.836Z,10.10
2023-03-01T05:50:14.772Z,11.10
2023-03-01T05:51:14.798Z,10.30
2023-03-01T05:52:14.821Z,10.20
2023-03-01T05:53:14.785Z,10.50
2023-03-01T05:54:14.746Z,11.10
2023-03-01T05:55:14.743Z,12.10
2023-03-01T05:56:14.746Z,10.00
2023-03-01T05:57:14.729Z,9.60
2023-03-01T05:58:14.729Z,10.20
2023-03-01T05:59:14.744Z,9.70
2023-03-01T06:00:14.695Z,10.40
2023-03-01T06:01:14.768Z,10.80
2023-03-01T06:02:14.708Z,10.50
2023-03-01T06:03:14.678Z,10.20
2023-03-01T06:04:14.695Z,10.60
2023-03-01T06:05:14.736Z,10.60
2023-03-01T06:06:14.639Z,9.70
2023-03-01T06:07:14.645Z,11.40
2023-03-01T06:08:14.689Z,11.70
2023-03-01T06:09:14.620Z,12.60
2023-03-01T06:10:14.671Z,10.60
2023-03-01T06:11:14.596Z,10.70
2023-03-01T06:12:14.576Z,10.70
2023-03-01T06:13:14.585Z,10.90
2023-03-01T06:14:14.578Z,11.40
2023-03-01T06:15:14.624Z,10.70
2023-03-01T06:16:14.614Z,10.50
2023-03-01T06:17:14.528Z,10.50
2023-03-01T06:18:14.547Z,10.80
2023-03-01T06:19:14.550Z,10.10
2023-03-01T06:20:14.518Z,10.30
2023-03-01T06:21:14.496Z,10.40
2023-03-01T06:22:14.545Z,10.70
2023-03-01T06:23:14.505Z,10.80
2023-03-01T06:24:14.499Z,10.90
2023-03-01T06:25:14.469Z,10.70
2023-03-01T06:26:14.433Z,13.00
2023-03-01T06:27:14.451Z,10.90
2023-03-01T06:28:14.434Z,10.60
2023-03-01T06:29:14.433Z,10.70
2023-03-01T06:30:14.425Z,11.40
2023-03-01T06:31:14.515Z,11.30
2023-03-01T06:32:14.464Z,11.10
2023-03-01T06:33:14.383Z,10.90
2023-03-01T06:34:14.396Z,11.30
2023-03-01T06:35:14.341Z,10.50
2023-03-01T06:36:14.366Z,12.50
2023-03-01T06:37:14.343Z,11.40
2023-03-01T06:38:14.376Z,11.40
2023-03-01T06:39:14.310Z,11.20
2023-03-01T06:40:15.415Z,10.90
2023-03-01T06:41:14.351Z,11.60
2023-03-01T06:42:14.337Z,10.60
2023-03-01T06:43:14.289Z,11.10
2023-03-01T06:44:14.266Z,11.50
2023-03-01T06:45:14.279Z,12.90
2023-03-01T06:46:14.286Z,12.40
2023-03-01T06:47:14.269Z,14.20
2023-03-01T06:48:14.300Z,13.60
2023-03-01T06:49:14.208Z,14.60
2023-03-01T06:50:14.250Z,13.00
2023-03-01T06:51:14.202Z,12.00
2023-03-01T06:52:14.194Z,11.50
2023-03-01T06:53:14.211Z,11.40
2023-03-01T06:54:14.229Z,10.80
2023-03-01T06:55:14.179Z,11.30
2023-03-01T06:56:14.172Z,11.30
2023-03-01T06:57:14.303Z,12.00
2023-03-01T06:58:14.138Z,11.90
2023-03-01T06:59:14.134Z,13.50
2023-03-01T07:00:14.137Z,12.60
2023-03-01T07:01:14.130Z,12.30
2023-03-01T07:02:14.116Z,11.30
2023-03-01T07:03:14.169Z,11.30
2023-03-01T07:04:14.102Z,11.20
2023-03-01T07:05:14.071Z,11.30
2023-03-01T07:06:14.039Z,11.50
2023-03-01T07:07:14.047Z,11.50
2023-03-01T07:08:14.044Z,12.20
2023-03-01T07:09:13.999Z,11.10
2023-03-01T07:10:14.017Z,11.30
2023-03-01T07:11:14.082Z,11.10
2023-03-01T07:12:14.015Z,11.40
2023-03-01T07:13:13.979Z,11.30
2023-03-01T07:14:14.015Z,12.00
2023-03-01T07:15:13.955Z,11.70
2023-03-01T07:16:14.019Z,12.50
2023-03-01T07:17:13.940Z,12.20
2023-03-01T07:18:13.927Z,14.20
2023-03-01T07:19:13.925Z,14.20
2023-03-01T07:20:13.957Z,14.40
2023-03-01T07:21:13.930Z,13.10
2023-03-01T07:22:13.900Z,15.80
2023-03-01T07:23:13.884Z,15.40
2023-03-01T07:24:13.866Z,14.60
2023-03-01T07:25:13.837Z,14.70
2023-03-01T07:26:13.845Z,14.40
2023-03-01T07:27:13.841Z,13.50
2023-03-01T07:28:13.882Z,13.70
2023-03-01T07:29:13.852Z,12.40
2023-03-01T07:30:14.290Z,13.40
2023-03-01T07:31:13.806Z,12.90
2023-03-01T07:32:13.961Z,13.80
2023-03-01T07:33:13.841Z,13.00
2023-03-01T07:34:13.862Z,13.60
2023-03-01T07:35:13.816Z,13.70
2023-03-01T07:36:13.811Z,13.60
2023-03-01T07:37:13.778Z,14.30
2023-03-01T07:38:13.778Z,13.50
2023-03-01T07:39:13.732Z,13.20
2023-03-01T07:40:13.781Z,12.80
2023-03-01T07:41:13.710Z,12.90
2023-03-01T07:42:13.694Z,12.70
2023-03-01T07:43:13.674Z,12.70
2023-03-01T07:44:13.748Z,12.30
2023-03-01T07:45:13.694Z,12.40
2023-03-01T07:46:13.668Z,13.10
2023-03-01T07:47:13.637Z,13.30
2023-03-01T07:48:13.711Z,12.10
2023-03-01T07:49:13.615Z,12.10
2023-03-01T07:50:13.640Z,12.20
2023-03-01T07:51:13.624Z,11.70
2023-03-01T07:52:13.605Z,11.90
2023-03-01T07:53:13.579Z,11.70
2023-03-01T07:54:13.616Z,11.30
2023-03-01T07:55:13.547Z,11.20
2023-03-01T07:56:13.564Z,11.30
2023-03-01T07:57:13.572Z,10.70
2023-03-01T07:58:13.527Z,10.40
2023-03-01T07:59:13.515Z,11.50
2023-03-01T08:00:13.542Z,11.80
2023-03-01T08:01:13.505Z,11.80
2023-03-01T08:02:13.527Z,11.30
2023-03-01T08:03:13.575Z,10.70
2023-03-01T08:04:13.495Z,10.30
2023-03-01T08:05:13.460Z,10.20
2023-03-01T08:06:13.453Z,10.60
2023-03-01T08:07:13.482Z,10.60
2023-03-01T08:08:13.442Z,10.70
2023-03-01T08:09:13.430Z,10.70
2023-03-01T08:10:13.474Z,10.30
2023-03-01T08:11:13.504Z,11.00
2023-03-01T08:12:13.385Z,10.80
2023-03-01T08:13:13.434Z,10.90
2023-03-01T08:14:13.402Z,10.50
2023-03-01T08:15:13.397Z,9.90
2023-03-01T08:16:13.486Z,10.30
2023-03-01T08:17:13.333Z,10.30
2023-03-01T08:18:13.519Z,10.30
2023-03-01T08:19:13.370Z,10.80
2023-03-01T08:20:13.341Z,9.50
2023-03-01T08:21:13.341Z,10.10
2023-03-01T08:22:13.305Z,10.10
2023-03-01T08:23:13.272Z,10.50
2023-03-01T08:24:13.262Z,10.00
2023-03-01T08:25:13.286Z,9.90
2023-03-01T08:26:13.275Z,9.70
2023-03-01T08:27:13.264Z,10.10
2023-03-01T08:28:13.243Z,9.80
2023-03-01T08:29:13.244Z,10.60
2023-03-01T08:30:13.257Z,9.10
2023-03-01T08:31:13.189Z,9.60
2023-03-01T08:32:13.357Z,9.80
2023-03-01T08:33:13.264Z,9.40
2023-03-01T08:34:13.211Z,9.80
2023-03-01T08:35:13.148Z,9.30
2023-03-01T08:36:13.183Z,8.40
2023-03-01T08:37:13.182Z,9.60
2023-03-01T08:38:13.150Z,9.40
2023-03-01T08:39:13.151Z,9.00
2023-03-01T08:40:13.102Z,9.50
2023-03-01T08:41:13.109Z,8.70
2023-03-01T08:42:13.114Z,9.00
2023-03-01T08:43:13.099Z,8.50
2023-03-01T08:44:13.104Z,9.00
2023-03-01T08:45:13.051Z,8.60
2023-03-01T08:46:13.107Z,8.40
2023-03-01T08:47:13.065Z,8.10
2023-03-01T08:48:13.042Z,8.80
2023-03-01T08:49:13.049Z,8.80
2023-03-01T08:50:13.018Z,8.60
2023-03-01T08:51:12.991Z,8.30
2023-03-01T08:52:13.009Z,8.00
2023-03-01T08:53:13.061Z,8.20
2023-03-01T08:54:12.991Z,8.20
2023-03-01T08:55:12.955Z,7.90
2023-03-01T08:56:12.983Z,8.20
2023-03-01T08:57:12.944Z,8.20
2023-03-01T08:58:12.935Z,7.60
2023-03-01T08:59:12.936Z,7.30
2023-03-01T09:00:12.950Z,7.20
2023-03-01T09:01:12.924Z,7.00
2023-03-01T09:02:12.904Z,7.70
2023-03-01T09:03:12.901Z,7.30
2023-03-01T09:04:13.887Z,7.30
2023-03-01T09:05:12.860Z,7.30
2023-03-01T09:06:12.858Z,6.90
2023-03-01T09:07:12.831Z,7.50
2023-03-01T09:08:12.937Z,7.10
2023-03-01T09:09:12.818Z,7.80
2023-03-01T09:10:12.825Z,7.00
2023-03-01T09:11:12.812Z,6.60
2023-03-01T09:12:12.805Z,7.30
2023-03-01T09:13:12.828Z,7.40
2023-03-01T09:14:12.812Z,7.40
2023-03-01T09:15:12.851Z,7.70
2023-03-01T09:16:12.806Z,7.20
2023-03-01T09:17:12.835Z,7.80
2023-03-01T09:18:12.766Z,7.20
2023-03-01T09:19:12.734Z,6.60
2023-03-01T09:20:12.708Z,6.80
2023-03-01T09:21:12.724Z,6.60
2023-03-01T09:22:12.720Z,6.40
2023-03-01T09:23:12.671Z,6.00
2023-03-01T09:24:12.778Z,6.70
2023-03-01T09:25:12.656Z,6.40
2023-03-01T09:26:12.644Z,6.70
2023-03-01T09:27:12.642Z,6.30
2023-03-01T09:28:27.635Z,6.60
2023-03-01T09:29:12.627Z,6.20
2023-03-01T09:30:12.613Z,6.10
2023-03-01T09:31:12.658Z,6.40
2023-03-01T09:32:12.699Z,6.50
2023-03-01T09:33:12.608Z,5.90
2023-03-01T09:34:12.570Z,5.80
2023-03-01T09:35:12.576Z,6.50
2023-03-01T09:36:12.587Z,6.10
2023-03-01T09:37:12.559Z,5.70
2023-03-01T09:38:12.530Z,5.90
2023-03-01T09:39:12.537Z,6.40
2023-03-01T09:40:12.518Z,5.70
2023-03-01T09:41:12.524Z,6.10
2023-03-01T09:42:12.513Z,6.40
2023-03-01T09:43:12.493Z,5.80
2023-03-01T09:44:12.474Z,5.70
2023-03-01T09:45:12.489Z,5.50
2023-03-01T09:46:12.510Z,5.40
2023-03-01T09:47:12.464Z,5.70
2023-03-01T09:48:12.473Z,5.50
2023-03-01T09:49:12.426Z,5.50
2023-03-01T09:50:12.416Z,5.40
2023-03-01T09:51:12.390Z,5.30
2023-03-01T09:52:12.451Z,5.30
2023-03-01T09:53:12.383Z,5.90
2023-03-01T09:54:12.395Z,5.20
2023-03-01T09:55:12.349Z,5.80
2023-03-01T09:56:12.380Z,5.70
2023-03-01T09:57:12.353Z,5.90
2023-03-01T09:58:12.324Z,5.40
2023-03-01T09:59:12.337Z,5.50
2023-03-01T10:00:12.313Z,5.50
2023-03-01T10:01:12.315Z,5.20
2023-03-01T10:02:12.280Z,6.00
2023-03-01T10:03:12.293Z,5.40
2023-03-01T10:04:12.412Z,5.50
2023-03-01T10:05:12.398Z,5.30
2023-03-01T10:06:14.940Z,5.50
2023-03-01T10:07:12.238Z,5.30
2023-03-01T10:08:12.244Z,5.50
2023-03-01T10:09:12.237Z,5.40
2023-03-01T10:10:12.241Z,5.20
2023-03-01T10:11:12.212Z,5.40
2023-03-01T10:12:12.220Z,5.90
2023-03-01T10:13:12.219Z,6.10
2023-03-01T10:14:12.174Z,6.60
2023-03-01T10:15:12.174Z,6.20
2023-03-01T10:16:12.187Z,6.70
2023-03-01T10:17:12.134Z,6.50
2023-03-01T10:18:12.230Z,6.50
2023-03-01T10:19:12.113Z,6.70
2023-03-01T10:20:12.097Z,6.10
2023-03-01T10:21:12.076Z,6.00
2023-03-01T10:22:12.076Z,6.10
2023-03-01T10:23:12.159Z,5.80
2023-03-01T10:24:12.060Z,5.30
2023-03-01T10:25:12.052Z,5.80
2023-03-01T10:26:12.049Z,5.80
2023-03-01T10:27:12.092Z,5.40
2023-03-01T10:28:12.004Z,5.20
2023-03-01T10:29:12.037Z,5.20
2023-03-01T10:30:12.003Z,5.30
2023-03-01T10:31:12.007Z,5.60
2023-03-01T10:32:11.999Z,5.30
2023-03-01T10:33:11.993Z,5.50
2023-03-01T10:34:11.962Z,5.00
2023-03-01T10:35:11.966Z,5.10
2023-03-01T10:36:11.950Z,5.50
2023-03-01T10:37:11.915Z,5.20
2023-03-01T10:38:11.923Z,5.30
2023-03-01T10:39:11.943Z,4.90
2023-03-01T10:40:11.939Z,5.50
2023-03-01T10:41:11.876Z,5.60
2023-03-01T10:42:11.844Z,5.90
2023-03-01T10:43:11.916Z,5.70
2023-03-01T10:44:11.899Z,6.00
2023-03-01T10:45:11.873Z,5.70
2023-03-01T10:46:11.888Z,5.80
2023-03-01T10:47:11.845Z,5.60
2023-03-01T10:48:11.810Z,6.20
2023-03-01T10:49:11.822Z,6.20
2023-03-01T10:50:11.781Z,5.90
2023-03-01T10:51:11.789Z,5.90
2023-03-01T10:52:11.800Z,6.40
2023-03-01T10:53:11.767Z,6.40
2023-03-01T10:54:11.763Z,6.00
2023-03-01T10:55:11.777Z,6.30
2023-03-01T10:56:11.712Z,6.50
2023-03-01T10:57:11.730Z,6.30
2023-03-01T10:58:11.708Z,6.00
2023-03-01T10:59:11.699Z,6.30
2023-03-01T11:00:11.680Z,6.30
2023-03-01T11:01:11.706Z,6.50
2023-03-01T11:02:23.590Z,5.90
2023-03-01T11:03:11.701Z,6.60
2023-03-01T11:04:11.614Z,6.00
2023-03-01T11:05:11.622Z,6.20
2023-03-01T11:06:11.618Z,7.00
2023-03-01T11:07:11.612Z,6.40
2023-03-01T11:08:11.588Z,6.20
2023-03-01T11:09:11.642Z,6.40
2023-03-01T11:10:11.570Z,6.10
2023-03-01T11:11:11.559Z,6.60
2023-03-01T11:12:11.541Z,6.10
2023-03-01T11:13:11.546Z,6.40
2023-03-01T11:14:24.970Z,6.80
2023-03-01T11:15:11.562Z,6.80
2023-03-01T11:16:11.553Z,6.90
2023-03-01T11:17:11.519Z,6.30
2023-03-01T11:18:14.311Z,6.80
2023-03-01T11:19:11.493Z,6.70
2023-03-01T11:20:11.493Z,6.50
2023-03-01T11:21:11.464Z,7.40
2023-03-01T11:22:11.518Z,7.00
2023-03-01T11:23:11.438Z,7.40
2023-03-01T11:24:11.466Z,7.00
2023-03-01T11:25:11.463Z,7.40
2023-03-01T11:26:12.815Z,7.60
2023-03-01T11:27:11.407Z,7.00
2023-03-01T11:28:11.414Z,6.60
2023-03-01T11:29:11.390Z,7.00
2023-03-01T11:30:11.401Z,7.10
2023-03-01T11:31:11.397Z,6.70
2023-03-01T11:32:11.487Z,6.70
2023-03-01T11:33:11.440Z,7.10
2023-03-01T11:34:11.331Z,6.80
2023-03-01T11:35:11.342Z,6.90
2023-03-01T11:36:11.333Z,7.10
2023-03-01T11:37:11.290Z,6.70
2023-03-01T11:38:11.411Z,6.80
2023-03-01T11:39:11.278Z,6.70
2023-03-01T11:40:11.310Z,6.60
2023-03-01T11:41:11.251Z,6.90
2023-03-01T11:42:18.651Z,6.50
2023-03-01T11:43:11.428Z,6.60
2023-03-01T11:44:11.223Z,6.50
2023-03-01T11:45:11.218Z,7.10
2023-03-01T11:46:12.790Z,6.80
2023-03-01T11:47:11.327Z,7.00
2023-03-01T11:48:11.250Z,6.70
2023-03-01T11:49:11.194Z,6.60
2023-03-01T11:50:11.164Z,6.80
2023-03-01T11:51:11.166Z,7.50
2023-03-01T11:52:11.193Z,6.50
2023-03-01T11:53:11.160Z,6.90
2023-03-01T11:54:11.130Z,7.00
2023-03-01T11:55:11.121Z,7.00
2023-03-01T11:56:11.189Z,6.60
2023-03-01T11:57:11.167Z,6.80
2023-03-01T11:58:11.070Z,7.30
2023-03-01T11:59:11.066Z,6.80
2023-03-01T12:00:11.084Z,7.20
2023-03-01T12:01:11.105Z,7.20
2023-03-01T12:02:11.993Z,7.60
2023-03-01T12:03:11.051Z,7.60
2023-03-01T12:04:11.023Z,7.80
2023-03-01T12:05:11.060Z,7.70
2023-03-01T12:06:11.026Z,7.50
2023-03-01T12:07:11.018Z,7.90
2023-03-01T12:08:10.953Z,7.10
2023-03-01T12:09:10.967Z,7.30
2023-03-01T12:10:10.947Z,7.10
2023-03-01T12:11:10.975Z,7.10
2023-03-01T12:12:10.932Z,7.40
2023-03-01T12:13:10.925Z,7.10
2023-03-01T12:14:10.930Z,7.50
2023-03-01T12:15:10.929Z,7.40
2023-03-01T12:16:11.013Z,7.40
2023-03-01T12:17:10.932Z,7.40
2023-03-01T12:18:10.918Z,6.90
2023-03-01T12:19:10.900Z,7.50
2023-03-01T12:20:10.900Z,6.90
2023-03-01T12:21:10.876Z,7.80
2023-03-01T12:22:10.844Z,7.20
2023-03-01T12:23:19.894Z,7.30
2023-03-01T12:24:10.870Z,7.80
2023-03-01T12:25:10.815Z,6.90
2023-03-01T12:26:12.039Z,7.50
2023-03-01T12:27:10.785Z,7.30
2023-03-01T12:28:10.784Z,7.90
2023-03-01T12:29:10.784Z,7.60
2023-03-01T12:30:10.791Z,7.60
2023-03-01T12:31:10.839Z,7.50
2023-03-01T12:32:10.897Z,8.10
2023-03-01T12:33:10.803Z,7.50
2023-03-01T12:34:10.755Z,7.70
2023-03-01T12:35:10.695Z,7.60
2023-03-01T12:36:10.710Z,7.80
2023-03-01T12:37:10.710Z,7.60
2023-03-01T12:38:10.694Z,7.20
2023-03-01T12:39:10.698Z,8.20
2023-03-01T12:40:10.659Z,7.90
2023-03-01T12:41:10.659Z,7.30
2023-03-01T12:42:10.664Z,7.90
2023-03-01T12:43:10.640Z,7.00
2023-03-01T12:44:10.603Z,7.60
2023-03-01T12:45:10.653Z,7.70
2023-03-01T12:46:10.665Z,7.50
2023-03-01T12:47:10.609Z,7.70
2023-03-01T12:48:10.578Z,7.70
2023-03-01T12:49:10.552Z,8.00
2023-03-01T12:50:10.570Z,7.10
2023-03-01T12:51:10.531Z,7.90
2023-03-01T12:52:10.565Z,7.50
2023-03-01T12:53:10.545Z,7.30
2023-03-01T12:54:10.526Z,7.80
2023-03-01T12:55:10.555Z,7.80
2023-03-01T12:56:10.477Z,8.30
2023-03-01T12:57:10.483Z,8.20
2023-03-01T12:58:10.497Z,8.00
2023-03-01T12:59:10.485Z,8.00
2023-03-01T13:00:10.493Z,8.20
2023-03-01T13:01:10.514Z,8.20
2023-03-01T13:02:10.424Z,7.90
2023-03-01T13:03:10.441Z,8.20
2023-03-01T13:04:10.496Z,8.30
2023-03-01T13:05:10.433Z,8.20
2023-03-01T13:06:10.421Z,8.40
2023-03-01T13:07:10.410Z,8.30
2023-03-01T13:08:10.387Z,8.50
2023-03-01T13:09:10.386Z,8.40